Time;durP1;ratioP1;P1;durP2;ratioP2;P2;SDS_P1;SDS_P2;PMS_P1;PMS_P2;Temp;Humidity;BMP_temperature;BMP_pressure;BME280_temperature;BME280_humidity;BME280_pressure;Samples;Min_cycle;Max_cycle;Signal;HPM_P1;HPM_P2
2023/12/07 00:00:56;;;;;;;75.35;70.05;;;;;;;3.97;100.00;101044.59;5037420;28;20046;-78
2023/12/07 00:03:22;;;;;;;82.32;76.57;;;;;;;3.97;100.00;101044.59;5040097;28;20061;-79
2023/12/07 00:05:49;;;;;;;88.70;83.00;;;;;;;3.78;100.00;101042.97;5040839;28;20057;-79
2023/12/07 00:08:16;;;;;;;87.10;81.20;;;;;;;4.22;100.00;101037.69;5038331;28;20532;-79
2023/12/07 00:10:43;;;;;;;86.03;80.18;;;;;;;3.87;100.00;101042.91;5041961;28;20041;-79
2023/12/07 00:13:17;;;;;;;155.63;145.45;;;;;;;4.09;100.00;101038.94;5039826;28;20047;-79
2023/12/07 00:15:45;;;;;;;159.32;148.63;;;;;;;3.79;100.00;101050.72;5035396;28;20062;-78
2023/12/07 00:18:12;;;;;;;151.60;141.85;;;;;;;3.74;100.00;101044.28;5028857;28;20411;-74
2023/12/07 00:20:42;;;;;;;152.48;142.75;;;;;;;3.30;100.00;101050.31;5037165;28;20052;-79
2023/12/07 00:23:09;;;;;;;146.63;137.20;;;;;;;3.21;100.00;101061.72;5043428;28;20052;-74
2023/12/07 00:25:36;;;;;;;77.40;71.82;;;;;;;3.27;100.00;101057.66;5043978;28;20095;-73
2023/12/07 00:28:03;;;;;;;76.05;70.25;;;;;;;3.51;100.00;101063.16;5039872;28;20051;-74
2023/12/07 00:30:30;;;;;;;69.65;64.45;;;;;;;3.02;100.00;101065.28;5036441;28;20565;-79
2023/12/07 00:32:59;;;;;;;71.47;66.30;;;;;;;3.13;100.00;101067.72;5047130;28;20079;-79
2023/12/07 00:35:28;;;;;;;62.13;57.60;;;;;;;3.04;100.00;101076.47;5033009;28;20054;-78
2023/12/07 00:37:56;;;;;;;58.63;54.22;;;;;;;3.07;100.00;101078.81;5035614;28;21000;-78
2023/12/07 00:40:24;;;;;;;71.82;66.53;;;;;;;3.25;100.00;101078.00;5045793;28;20041;-75
2023/12/07 00:42:51;;;;;;;87.85;81.72;;;;;;;3.14;100.00;101084.28;5036097;28;20054;-75
2023/12/07 00:45:18;;;;;;;61.88;57.15;;;;;;;3.40;100.00;101085.19;5042167;28;20406;-80
2023/12/07 00:47:44;;;;;;;58.47;54.00;;;;;;;3.03;100.00;101093.19;5042738;28;20045;-77
2023/12/07 00:50:15;;;;;;;55.53;51.33;;;;;;;3.03;100.00;101090.56;5045903;28;20048;-77
2023/12/07 00:52:42;;;;;;;67.05;62.15;;;;;;;3.06;100.00;101092.91;5035656;28;20115;-79
2023/12/07 00:55:10;;;;;;;64.13;59.22;;;;;;;3.14;100.00;101098.22;5039397;28;20053;-78
2023/12/07 00:57:37;;;;;;;66.45;61.22;;;;;;;2.95;100.00;101099.16;5046455;28;20079;-79
2023/12/07 01:00:05;;;;;;;63.80;59.10;;;;;;;2.98;100.00;101098.06;5039781;28;20044;-79
2023/12/07 01:02:32;;;;;;;60.72;56.22;;;;;;;2.89;100.00;101099.75;5039577;28;20054;-79
2023/12/07 01:05:07;;;;;;;60.65;56.15;;;;;;;2.95;100.00;101106.22;5037028;28;20058;-79
2023/12/07 01:07:36;;;;;;;54.85;50.65;;;;;;;2.91;100.00;101103.06;5043658;28;20060;-78
2023/12/07 01:10:04;;;;;;;56.25;52.00;;;;;;;2.94;100.00;101104.59;5040204;28;20064;-79
2023/12/07 01:12:31;;;;;;;55.50;51.10;;;;;;;2.82;100.00;101109.19;5031287;28;20053;-79
2023/12/07 01:14:58;;;;;;;65.25;60.45;;;;;;;2.84;100.00;101104.59;5036302;28;20054;-79
2023/12/07 01:17:25;;;;;;;69.03;63.92;;;;;;;2.86;100.00;101100.06;5033815;28;20063;-79
2023/12/07 01:19:51;;;;;;;56.63;52.15;;;;;;;2.80;100.00;101110.31;5038659;28;20045;-79
2023/12/07 01:22:22;;;;;;;60.05;55.45;;;;;;;2.87;100.00;101101.69;5036795;28;20103;-79
2023/12/07 01:24:51;;;;;;;69.30;64.20;;;;;;;2.98;100.00;101101.50;5040201;28;20064;-74
2023/12/07 01:27:18;;;;;;;66.63;61.83;;;;;;;2.80;100.00;101097.19;5046782;28;20589;-73
2023/12/07 01:29:44;;;;;;;71.43;66.32;;;;;;;3.05;100.00;101088.63;5038545;28;20057;-73
2023/12/07 01:32:11;;;;;;;62.65;58.05;;;;;;;2.88;100.00;101100.75;5042682;28;20041;-73
2023/12/07 01:34:38;;;;;;;55.83;51.72;;;;;;;3.04;100.00;101088.78;5038006;28;20075;-73
2023/12/07 01:37:05;;;;;;;61.05;56.75;;;;;;;2.71;100.00;101096.25;5038504;28;20042;-74
2023/12/07 01:39:39;;;;;;;60.63;56.00;;;;;;;2.77;100.00;101100.09;5033048;28;20057;-73
2023/12/07 01:42:09;;;;;;;62.30;57.55;;;;;;;3.73;100.00;101092.56;5034366;28;20048;-74
2023/12/07 01:44:37;;;;;;;67.88;62.97;;;;;;;2.79;100.00;101090.31;5035693;28;20049;-73
2023/12/07 01:47:08;;;;;;;66.18;61.47;;;;;;;2.61;100.00;101085.81;5035983;28;20439;-74
2023/12/07 01:49:35;;;;;;;62.20;57.67;;;;;;;2.68;100.00;101088.69;5036190;28;20044;-74
2023/12/07 01:52:03;;;;;;;75.35;70.07;;;;;;;2.92;100.00;101091.59;5043706;28;20060;-73
2023/12/07 01:54:31;;;;;;;51.15;47.25;;;;;;;2.56;100.00;101090.66;5043263;28;20140;-73
2023/12/07 01:56:58;;;;;;;53.90;49.85;;;;;;;2.51;100.00;101085.88;5036596;28;20050;-73
2023/12/07 01:59:27;;;;;;;67.50;62.88;;;;;;;2.71;100.00;101075.28;5041532;28;20056;-73
2023/12/07 02:01:54;;;;;;;59.38;55.08;;;;;;;2.53;100.00;101080.47;5041787;28;20083;-73
2023/12/07 02:04:21;;;;;;;57.33;53.03;;;;;;;2.53;100.00;101091.78;5035209;28;20041;-74
2023/12/07 02:06:49;;;;;;;55.95;51.78;;;;;;;2.47;100.00;101087.09;5038512;28;20055;-73
2023/12/07 02:09:16;;;;;;;49.80;45.90;;;;;;;2.45;100.00;101091.69;5031642;28;20473;-74
2023/12/07 02:11:43;;;;;;;59.25;54.65;;;;;;;2.64;100.00;101092.59;5034479;28;20084;-74
2023/12/07 02:14:13;;;;;;;58.95;54.53;;;;;;;2.91;100.00;101089.94;5044630;28;20053;-73
2023/12/07 02:16:46;;;;;;;50.17;46.17;;;;;;;2.57;100.00;101094.09;5029961;28;20053;-73
2023/12/07 02:19:26;;;;;;;47.10;43.40;;;;;;;2.52;100.00;101089.31;5042550;28;20434;-73
2023/12/07 02:21:57;;;;;;;56.13;51.95;;;;;;;3.48;100.00;101096.75;5032948;28;20038;-73
2023/12/07 02:24:28;;;;;;;52.35;48.35;;;;;;;3.07;100.00;101097.19;5047465;28;20084;-74
2023/12/07 02:26:56;;;;;;;45.75;42.05;;;;;;;2.92;100.00;101096.03;5040640;28;20056;-79
2023/12/07 02:29:23;;;;;;;48.80;45.08;;;;;;;2.96;100.00;101092.94;5038172;28;20045;-79
2023/12/07 02:31:50;;;;;;;48.03;44.22;;;;;;;3.48;100.00;101112.50;5044695;28;20053;-79
2023/12/07 02:34:19;;;;;;;51.45;47.55;;;;;;;3.13;100.00;101106.25;5035900;28;20493;-79
2023/12/07 02:36:49;;;;;;;50.55;46.47;;;;;;;3.42;100.00;101114.78;5033454;28;20439;-79
2023/12/07 02:39:24;;;;;;;52.08;48.17;;;;;;;3.10;100.00;101114.44;5043304;28;20045;-79
2023/12/07 02:42:05;;;;;;;51.20;47.30;;;;;;;2.98;100.00;101111.19;5045404;28;20405;-79
2023/12/07 02:44:32;;;;;;;50.03;46.22;;;;;;;2.91;100.00;101112.75;5037284;28;20056;-79
2023/12/07 02:47:00;;;;;;;48.55;44.75;;;;;;;2.96;100.00;101113.13;5041085;28;20518;-79
2023/12/07 02:49:27;;;;;;;45.10;41.55;;;;;;;2.60;100.00;101120.03;5033174;28;20064;-74
2023/12/07 02:51:53;;;;;;;46.67;42.97;;;;;;;2.74;100.00;101112.53;5039182;28;20136;-78
2023/12/07 02:54:20;;;;;;;44.80;41.30;;;;;;;2.55;100.00;101117.06;5042661;28;20045;-74
2023/12/07 02:56:49;;;;;;;49.75;45.67;;;;;;;2.56;100.00;101114.25;5031110;28;20105;-79
2023/12/07 02:59:17;;;;;;;51.20;47.08;;;;;;;2.60;100.00;101112.19;5042520;28;22072;-74
2023/12/07 03:01:44;;;;;;;61.13;56.53;;;;;;;2.47;100.00;101121.19;5037551;28;20087;-79
2023/12/07 03:04:11;;;;;;;45.83;42.22;;;;;;;2.45;100.00;101117.91;5038236;28;20453;-74
2023/12/07 03:06:38;;;;;;;47.90;44.00;;;;;;;2.53;100.00;101118.00;5035000;28;20109;-73
2023/12/07 03:09:05;;;;;;;49.70;45.78;;;;;;;2.31;100.00;101123.59;5034644;28;20053;-79
2023/12/07 03:11:33;;;;;;;48.33;44.33;;;;;;;2.38;100.00;101124.69;5032789;28;20052;-73
2023/12/07 03:14:00;;;;;;;48.65;44.85;;;;;;;2.68;100.00;101128.03;5043218;28;20049;-78
2023/12/07 03:16:28;;;;;;;51.25;47.25;;;;;;;2.18;100.00;101134.41;5042550;28;20045;-73
2023/12/07 03:18:55;;;;;;;46.08;42.38;;;;;;;2.23;100.00;101137.41;5032043;28;20056;-73
2023/12/07 03:21:22;;;;;;;49.80;45.78;;;;;;;2.56;100.00;101139.66;5036854;28;20046;-78
2023/12/07 03:23:49;;;;;;;48.17;44.38;;;;;;;2.29;100.00;101136.84;5034685;28;20514;-73
2023/12/07 03:26:16;;;;;;;48.80;45.00;;;;;;;2.35;100.00;101145.13;5048043;28;20079;-73
2023/12/07 03:28:43;;;;;;;53.75;49.85;;;;;;;2.42;100.00;101147.03;5038261;28;20045;-79
2023/12/07 03:31:10;;;;;;;48.08;44.38;;;;;;;2.39;100.00;101142.09;5038741;28;20514;-79
2023/12/07 03:33:39;;;;;;;48.10;44.38;;;;;;;2.22;100.00;101148.88;5040011;28;20049;-74
2023/12/07 03:36:07;;;;;;;46.72;42.90;;;;;;;2.11;100.00;101149.00;5037152;28;20059;-79
2023/12/07 03:38:33;;;;;;;42.15;38.63;;;;;;;2.14;100.00;101153.97;5039977;28;20402;-79
2023/12/07 03:40:59;;;;;;;45.90;42.40;;;;;;;2.29;100.00;101160.44;5045212;28;20052;-74
2023/12/07 03:43:26;;;;;;;47.42;43.72;;;;;;;2.14;100.00;101161.00;5037165;28;20048;-73
2023/12/07 03:45:53;;;;;;;46.38;42.50;;;;;;;2.19;100.00;101158.81;5040204;28;20137;-74
2023/12/07 03:48:19;;;;;;;44.78;40.88;;;;;;;2.10;100.00;101164.88;5038930;28;20144;-73
2023/12/07 03:50:47;;;;;;;40.85;37.65;;;;;;;2.19;100.00;101161.44;5035585;28;20100;-74
2023/12/07 03:53:14;;;;;;;41.78;38.60;;;;;;;2.30;100.00;101161.28;5039287;28;20049;-78
2023/12/07 03:55:42;;;;;;;47.38;43.88;;;;;;;2.05;100.00;101171.34;5033521;28;20041;-79
2023/12/07 03:58:09;;;;;;;42.05;38.90;;;;;;;2.23;100.00;101168.03;5035222;28;20045;-73
2023/12/07 04:00:36;;;;;;;43.13;39.80;;;;;;;2.19;100.00;101169.28;5047865;28;20052;-73
2023/12/07 04:03:03;;;;;;;43.38;40.08;;;;;;;2.08;100.00;101175.50;5034065;28;20041;-78
2023/12/07 04:05:30;;;;;;;46.00;42.50;;;;;;;2.02;100.00;101171.63;5040854;28;20132;-74
2023/12/07 04:08:01;;;;;;;40.58;37.47;;;;;;;2.17;100.00;101169.41;5040782;28;20581;-79
2023/12/07 04:10:29;;;;;;;38.63;35.72;;;;;;;2.10;100.00;101165.72;5038684;28;20053;-79
2023/12/07 04:12:56;;;;;;;43.70;40.60;;;;;;;2.16;100.00;101170.41;5037400;28;20041;-73
2023/12/07 04:15:23;;;;;;;44.85;41.55;;;;;;;2.00;100.00;101168.34;5035192;28;20042;-73
2023/12/07 04:17:50;;;;;;;43.33;40.13;;;;;;;2.01;100.00;101172.63;5041381;28;20056;-79
2023/12/07 04:20:17;;;;;;;46.83;43.33;;;;;;;2.00;100.00;101180.63;5031833;28;20045;-79
2023/12/07 04:22:45;;;;;;;45.25;41.83;;;;;;;2.14;100.00;101181.97;5046016;28;20056;-74
2023/12/07 04:25:13;;;;;;;44.75;41.38;;;;;;;2.03;100.00;101183.78;5042802;28;20045;-74
2023/12/07 04:27:40;;;;;;;45.10;41.80;;;;;;;1.83;100.00;101184.75;5040107;28;20079;-79
2023/12/07 04:30:11;;;;;;;41.38;38.17;;;;;;;1.75;100.00;101188.03;5035626;28;20068;-74
2023/12/07 04:32:39;;;;;;;38.78;35.88;;;;;;;1.93;100.00;101189.97;5042644;28;20045;-78
2023/12/07 04:35:06;;;;;;;36.03;33.33;;;;;;;1.86;100.00;101184.47;5046512;28;20048;-79
2023/12/07 04:37:33;;;;;;;33.60;31.00;;;;;;;2.04;100.00;101195.91;5049092;28;20052;-79
2023/12/07 04:40:01;;;;;;;52.92;49.35;;;;;;;1.74;100.00;101188.19;5051661;28;20443;-75
2023/12/07 04:42:31;;;;;;;59.80;55.72;;;;;;;1.71;100.00;101191.09;5050931;28;20128;-79
2023/12/07 04:45:12;;;;;;;57.42;53.72;;;;;;;1.74;100.00;101194.25;5045888;28;20053;-79
2023/12/07 04:47:41;;;;;;;53.40;49.85;;;;;;;1.79;100.00;101196.47;5046897;28;20055;-79
2023/12/07 04:50:11;;;;;;;49.03;45.72;;;;;;;1.97;100.00;101192.19;5049084;28;20049;-79
2023/12/07 04:52:38;;;;;;;53.60;50.00;;;;;;;1.77;100.00;101198.41;5037534;28;20056;-79
2023/12/07 04:55:06;;;;;;;61.50;57.78;;;;;;;1.86;100.00;101202.00;5054782;28;20581;-79
2023/12/07 04:57:35;;;;;;;93.28;87.68;;;;;;;5.99;100.00;101201.81;5044754;28;20084;-79
2023/12/07 05:00:05;;;;;;;81.22;76.43;;;;;;;2.46;100.00;101207.88;5037373;28;20499;-79
2023/12/07 05:02:33;;;;;;;60.78;57.17;;;;;;;1.73;100.00;101197.84;5047058;28;20502;-78
2023/12/07 05:05:00;;;;;;;64.13;60.35;;;;;;;1.84;100.00;101208.16;5032431;28;20593;-79
2023/12/07 05:07:27;;;;;;;72.88;68.68;;;;;;;1.88;100.00;101205.31;5047383;28;20051;-79
2023/12/07 05:09:54;;;;;;;34.65;32.15;;;;;;;1.82;100.00;101207.50;5045518;28;20049;-78
2023/12/07 05:12:20;;;;;;;33.55;30.90;;;;;;;1.70;100.00;101202.53;5046743;28;21869;-79
2023/12/07 05:14:50;;;;;;;36.08;33.47;;;;;;;1.63;100.00;101209.25;5045329;28;20553;-79
2023/12/07 05:17:17;;;;;;;34.47;31.35;;;;;;;1.68;100.00;101209.69;5041871;28;20502;-79
2023/12/07 05:19:45;;;;;;;38.33;34.95;;;;;;;1.51;100.00;101211.16;5049995;28;20429;-74
2023/12/07 05:22:15;;;;;;;30.90;28.40;;;;;;;1.56;100.00;101216.84;5048824;28;20493;-74
2023/12/07 05:24:42;;;;;;;30.95;28.45;;;;;;;1.52;100.00;101218.91;5052473;28;20056;-74
2023/12/07 05:27:09;;;;;;;28.90;26.60;;;;;;;1.70;100.00;101219.06;5039323;28;20045;-77
2023/12/07 05:29:36;;;;;;;28.60;26.20;;;;;;;1.58;100.00;101228.00;5041390;28;20057;-78
2023/12/07 05:32:05;;;;;;;31.02;28.52;;;;;;;1.52;100.00;101229.38;5041705;28;20049;-78
2023/12/07 05:34:32;;;;;;;35.55;32.75;;;;;;;1.80;100.00;101227.75;5040450;28;20060;-79
2023/12/07 05:36:59;;;;;;;35.10;32.30;;;;;;;1.60;100.00;101226.06;5037473;28;20056;-73
2023/12/07 05:39:25;;;;;;;31.77;29.42;;;;;;;1.67;100.00;101227.19;5042984;28;20053;-73
2023/12/07 05:41:53;;;;;;;33.75;31.15;;;;;;;1.74;100.00;101228.31;5044242;28;20048;-73
2023/12/07 05:44:22;;;;;;;32.60;30.20;;;;;;;1.80;100.00;101226.94;5045432;28;20045;-79
2023/12/07 05:46:49;;;;;;;34.25;31.63;;;;;;;1.76;100.00;101234.25;5035123;28;20052;-73
2023/12/07 05:49:17;;;;;;;31.40;29.00;;;;;;;1.74;100.00;101232.72;5031172;28;20506;-79
2023/12/07 05:51:45;;;;;;;34.50;32.00;;;;;;;2.00;100.00;101223.38;5041039;28;20050;-78
2023/12/07 05:54:12;;;;;;;29.42;27.33;;;;;;;1.75;100.00;101239.59;5034436;28;20061;-78
2023/12/07 05:56:39;;;;;;;31.48;29.02;;;;;;;1.79;100.00;101226.09;5030414;28;20045;-80
2023/12/07 05:59:06;;;;;;;33.00;30.60;;;;;;;1.71;100.00;101233.81;5048911;28;20048;-79
2023/12/07 06:01:32;;;;;;;34.35;31.95;;;;;;;1.92;100.00;101233.69;5035435;28;20501;-79
2023/12/07 06:03:59;;;;;;;33.20;30.80;;;;;;;1.78;100.00;101232.28;5044336;28;20046;-79
2023/12/07 06:06:37;;;;;;;32.47;30.17;;;;;;;1.83;100.00;101232.72;5035436;28;20716;-79
2023/12/07 06:09:05;;;;;;;33.92;31.52;;;;;;;2.65;100.00;101228.00;5048004;28;20549;-79
2023/12/07 06:11:32;;;;;;;33.15;30.75;;;;;;;2.25;100.00;101229.84;5049404;28;20061;-79
2023/12/07 06:13:59;;;;;;;41.45;38.55;;;;;;;2.80;100.00;101234.44;5037228;28;20065;-81
2023/12/07 06:16:26;;;;;;;35.28;32.83;;;;;;;2.72;100.00;101229.91;5036705;28;20090;-81
2023/12/07 06:18:58;;;;;;;30.95;28.75;;;;;;;2.03;100.00;101232.75;5039431;28;20053;-80
2023/12/07 06:21:29;;;;;;;32.05;29.75;;;;;;;2.39;100.00;101238.22;5041697;28;20045;-75
2023/12/07 06:23:58;;;;;;;39.65;36.85;;;;;;;3.00;100.00;101234.38;5042892;28;20045;-74
2023/12/07 06:26:26;;;;;;;33.67;31.17;;;;;;;2.24;100.00;101237.81;5046936;28;20494;-75
2023/12/07 06:28:52;;;;;;;30.25;28.05;;;;;;;2.04;100.00;101239.63;5040852;28;20037;-75
2023/12/07 06:31:26;;;;;;;30.77;28.58;;;;;;;1.85;100.00;101245.69;5032877;28;20049;-81
2023/12/07 06:33:53;;;;;;;32.95;30.65;;;;;;;1.79;100.00;101248.88;5037500;28;20484;-82
2023/12/07 06:48:35;;;;;;;38.33;35.42;;;;;;;1.68;100.00;101249.78;5090031;27;20626;-74
2023/12/07 06:51:02;;;;;;;36.22;33.45;;;;;;;1.56;100.00;101256.94;5080547;28;20067;-75
2023/12/07 06:53:31;;;;;;;45.55;42.35;;;;;;;1.56;100.00;101258.72;5091860;28;20043;-74
2023/12/07 06:55:58;;;;;;;41.03;38.13;;;;;;;1.49;100.00;101255.00;5075419;28;20064;-81
2023/12/07 06:58:25;;;;;;;35.50;32.92;;;;;;;1.43;100.00;101260.78;5077482;28;20444;-75
2023/12/07 07:00:52;;;;;;;33.72;31.23;;;;;;;1.43;100.00;101260.78;5069439;28;20528;-74
2023/12/07 07:03:19;;;;;;;33.38;30.77;;;;;;;1.48;100.00;101261.19;5081375;28;20048;-80
2023/12/07 07:05:50;;;;;;;34.53;31.92;;;;;;;1.65;100.00;101262.34;5088338;28;20048;-79
2023/12/07 07:08:17;;;;;;;34.40;31.77;;;;;;;1.55;100.00;101268.38;5079395;28;20056;-81
2023/12/07 07:10:47;;;;;;;33.35;30.90;;;;;;;1.60;100.00;101263.56;5078184;28;20044;-79
2023/12/07 07:13:14;;;;;;;32.28;29.88;;;;;;;1.60;100.00;101271.44;5075746;28;20102;-81
2023/12/07 07:15:43;;;;;;;34.50;32.00;;;;;;;1.97;100.00;101264.75;5074180;28;20313;-74
2023/12/07 07:18:11;;;;;;;33.33;30.83;;;;;;;1.56;100.00;101263.97;5076969;28;20040;-74
2023/12/07 07:20:39;;;;;;;35.08;32.53;;;;;;;1.54;100.00;101263.25;5072241;28;20060;-81
2023/12/07 07:23:09;;;;;;;37.33;34.72;;;;;;;1.50;100.00;101262.69;5085369;28;20489;-81
2023/12/07 07:25:35;;;;;;;38.40;35.70;;;;;;;1.54;100.00;101264.13;5081298;28;20113;-81
2023/12/07 07:28:03;;;;;;;63.05;59.28;;;;;;;1.62;100.00;101260.00;5084757;28;20054;-75
2023/12/07 07:30:30;;;;;;;81.60;76.75;;;;;;;3.20;100.00;101254.31;5071346;28;20048;-74
2023/12/07 07:32:56;;;;;;;65.18;61.08;;;;;;;1.71;100.00;101265.25;5085239;28;20219;-81
2023/12/07 07:35:23;;;;;;;55.95;52.35;;;;;;;2.12;100.00;101266.00;5068052;28;20132;-74
2023/12/07 07:37:50;;;;;;;59.90;56.05;;;;;;;1.79;100.00;101265.41;5071580;28;20059;-75
2023/12/07 07:40:19;;;;;;;62.42;58.15;;;;;;;2.12;100.00;101263.38;5076807;28;20731;-81
2023/12/07 07:42:51;;;;;;;53.42;49.63;;;;;;;1.77;100.00;101264.69;5075996;28;20040;-74
2023/12/07 07:45:18;;;;;;;58.08;54.38;;;;;;;1.75;100.00;101271.84;5085280;28;20052;-74
2023/12/07 07:47:48;;;;;;;52.85;49.30;;;;;;;1.72;100.00;101263.44;5072957;28;20059;-74
2023/12/07 07:50:16;;;;;;;52.20;48.38;;;;;;;1.81;100.00;101271.31;5070331;28;21628;-74
2023/12/07 07:52:43;;;;;;;43.70;40.70;;;;;;;1.71;100.00;101265.25;5070302;28;20041;-75
2023/12/07 07:55:11;;;;;;;48.45;44.75;;;;;;;2.00;100.00;101281.00;5070975;28;20502;-81
2023/12/07 07:57:42;;;;;;;54.90;51.28;;;;;;;1.90;100.00;101280.16;5072861;28;20052;-81
2023/12/07 08:00:36;;;;;;;33.65;31.02;;;;;;;1.78;100.00;101279.44;5056092;28;20574;-81
2023/12/07 08:03:03;;;;;;;35.58;32.97;;;;;;;1.60;100.00;101289.75;5054792;28;20513;-80
2023/12/07 08:05:29;;;;;;;39.80;36.90;;;;;;;1.82;100.00;101280.84;5053278;28;20056;-81
2023/12/07 08:07:56;;;;;;;37.45;34.65;;;;;;;1.67;100.00;101292.66;5065483;28;20041;-74
2023/12/07 08:10:25;;;;;;;52.47;49.08;;;;;;;1.86;100.00;101289.25;5058609;28;20056;-74
2023/12/07 08:12:53;;;;;;;50.33;47.05;;;;;;;1.75;100.00;101289.38;5061602;28;20797;-74
2023/12/07 08:15:21;;;;;;;60.85;57.00;;;;;;;2.20;100.00;101289.69;5064252;28;20055;-75
2023/12/07 08:17:48;;;;;;;52.60;49.10;;;;;;;1.84;100.00;101285.94;5063545;28;20048;-74
2023/12/07 08:20:15;;;;;;;50.75;47.50;;;;;;;1.78;100.00;101297.78;5062206;28;20044;-74
2023/12/07 08:22:46;;;;;;;57.30;53.60;;;;;;;1.97;100.00;101298.81;5075056;28;20094;-81
2023/12/07 08:25:13;;;;;;;56.33;52.65;;;;;;;2.06;100.00;101292.75;5075385;28;20067;-80
2023/12/07 08:27:44;;;;;;;53.13;49.63;;;;;;;2.06;100.00;101300.59;5066719;28;20490;-81
2023/12/07 08:30:13;;;;;;;49.42;46.13;;;;;;;1.93;100.00;101292.97;5055376;28;20060;-74
2023/12/07 08:32:43;;;;;;;43.92;40.92;;;;;;;2.24;100.00;101296.34;5070749;28;20044;-75
2023/12/07 08:35:10;;;;;;;53.58;50.17;;;;;;;1.99;100.00;101299.47;5064074;28;20452;-74
2023/12/07 08:37:38;;;;;;;50.88;47.53;;;;;;;2.25;100.00;101310.28;5069554;28;20054;-82
2023/12/07 08:40:06;;;;;;;54.03;50.33;;;;;;;1.79;100.00;101306.47;5071480;28;20089;-75
2023/12/07 08:42:33;;;;;;;52.90;49.45;;;;;;;1.70;100.00;101305.50;5064542;28;20055;-80
2023/12/07 08:45:00;;;;;;;50.58;47.28;;;;;;;1.90;100.00;101310.75;5078104;28;20461;-81
2023/12/07 08:47:31;;;;;;;49.72;46.45;;;;;;;1.87;100.00;101309.25;5073060;28;20103;-74
2023/12/07 08:49:58;;;;;;;38.15;35.25;;;;;;;1.88;100.00;101315.34;5076765;28;20048;-80
2023/12/07 08:52:27;;;;;;;37.08;34.17;;;;;;;1.96;100.00;101311.06;5067669;28;20048;-74
2023/12/07 08:54:54;;;;;;;33.78;31.17;;;;;;;1.64;100.00;101315.69;5064352;28;20063;-74
2023/12/07 08:57:21;;;;;;;33.00;30.50;;;;;;;1.70;100.00;101313.34;5063362;28;20600;-74
2023/12/07 08:59:48;;;;;;;35.90;33.17;;;;;;;1.76;100.00;101314.63;5060233;28;20044;-81
2023/12/07 09:02:15;;;;;;;33.38;30.85;;;;;;;1.81;100.00;101320.25;5064565;28;20529;-81
2023/12/07 09:04:46;;;;;;;34.72;32.13;;;;;;;1.66;100.00;101316.34;5049520;28;20053;-74
2023/12/07 09:07:15;;;;;;;35.90;33.10;;;;;;;1.65;100.00;101322.56;5058032;28;20056;-74
2023/12/07 09:09:46;;;;;;;39.40;36.60;;;;;;;1.57;100.00;101326.69;5056099;28;20289;-74
2023/12/07 09:12:13;;;;;;;34.00;31.45;;;;;;;1.64;100.00;101319.13;5065323;28;20063;-74
2023/12/07 09:14:40;;;;;;;36.20;33.20;;;;;;;1.62;100.00;101307.94;5051628;28;20049;-81
2023/12/07 09:17:07;;;;;;;36.60;33.83;;;;;;;1.60;100.00;101310.72;5065506;28;20420;-81
2023/12/07 09:19:34;;;;;;;38.92;36.08;;;;;;;1.63;100.00;101309.59;5056475;28;20055;-81
2023/12/07 09:22:05;;;;;;;36.55;33.75;;;;;;;1.60;100.00;101307.22;5069069;28;20490;-74
2023/12/07 09:24:32;;;;;;;34.83;32.13;;;;;;;1.66;100.00;101306.69;5063182;28;20044;-81
2023/12/07 09:27:00;;;;;;;36.30;33.50;;;;;;;1.48;100.00;101308.31;5065922;28;20144;-81
2023/12/07 09:29:27;;;;;;;35.35;32.55;;;;;;;1.52;100.00;101304.47;5066919;28;20144;-81
2023/12/07 09:31:53;;;;;;;38.50;35.58;;;;;;;1.52;100.00;101315.78;5070129;28;20136;-74
2023/12/07 09:34:21;;;;;;;39.15;36.15;;;;;;;1.53;100.00;101311.34;5073666;28;20059;-74
2023/12/07 09:36:48;;;;;;;38.13;35.22;;;;;;;1.68;100.00;101303.97;5070182;28;20471;-74
2023/12/07 09:39:16;;;;;;;39.58;36.67;;;;;;;1.86;100.00;101319.88;5070312;28;20134;-74
2023/12/07 09:41:47;;;;;;;37.50;34.60;;;;;;;1.86;100.00;101304.97;5050731;28;20552;-74
2023/12/07 09:44:20;;;;;;;35.78;33.08;;;;;;;1.76;100.00;101309.38;5066715;28;20135;-81
2023/12/07 09:46:46;;;;;;;33.80;31.17;;;;;;;1.77;100.00;101317.09;5061310;28;20045;-81
2023/12/07 09:49:13;;;;;;;35.28;32.58;;;;;;;1.60;100.00;101310.72;5065473;28;20067;-74
2023/12/07 09:51:44;;;;;;;33.38;30.67;;;;;;;1.74;100.00;101308.66;5055712;28;20049;-81
2023/12/07 09:54:13;;;;;;;31.58;29.17;;;;;;;1.79;100.00;101312.56;5054815;28;20048;-80
2023/12/07 09:56:41;;;;;;;38.50;35.80;;;;;;;1.74;100.00;101313.91;5062016;28;20055;-81
2023/12/07 09:59:10;;;;;;;43.95;40.95;;;;;;;1.64;100.00;101305.22;5061925;28;20491;-81
2023/12/07 10:01:38;;;;;;;45.10;41.90;;;;;;;1.64;100.00;101313.06;5066615;28;20432;-80
2023/12/07 10:04:16;;;;;;;41.75;38.55;;;;;;;1.84;100.00;101310.34;5058763;28;20052;-74
2023/12/07 10:06:44;;;;;;;42.50;39.40;;;;;;;1.55;100.00;101312.06;5052968;28;20048;-74
2023/12/07 10:09:12;;;;;;;39.72;36.72;;;;;;;1.74;100.00;101309.50;5068292;28;20492;-75
2023/12/07 10:11:39;;;;;;;46.15;42.85;;;;;;;1.76;100.00;101285.81;5058054;28;20044;-75
2023/12/07 10:14:10;;;;;;;51.25;47.28;;;;;;;1.91;100.00;101297.56;5063685;28;20045;-74
2023/12/07 10:16:55;;;;;;;54.92;50.13;;;;;;;1.79;100.00;101291.59;5050926;28;20049;-74
2023/12/07 10:19:25;;;;;;;39.80;36.70;;;;;;;1.84;100.00;101294.63;5067203;28;20056;-74
2023/12/07 10:22:14;;;;;;;32.58;29.83;;;;;;;1.88;100.00;101292.59;5054904;28;20061;-81
2023/12/07 10:24:40;;;;;;;32.17;29.58;;;;;;;1.74;100.00;101290.34;5079933;28;20428;-81
2023/12/07 10:27:07;;;;;;;39.60;36.60;;;;;;;1.67;100.00;101290.06;5067188;28;20468;-81
2023/12/07 10:29:41;;;;;;;39.85;36.90;;;;;;;1.74;100.00;101296.41;5050182;28;20052;-81
2023/12/07 10:32:08;;;;;;;42.13;39.03;;;;;;;1.73;100.00;101302.59;5048514;28;20072;-81
2023/12/07 10:34:35;;;;;;;38.75;35.75;;;;;;;1.78;100.00;101292.53;5060408;28;20068;-81
2023/12/07 10:37:04;;;;;;;43.58;40.47;;;;;;;1.73;100.00;101296.53;5066776;28;20487;-75
2023/12/07 10:39:31;;;;;;;44.65;41.67;;;;;;;1.75;100.00;101292.81;5066808;28;20078;-75
2023/12/07 10:42:03;;;;;;;46.40;43.30;;;;;;;1.83;100.00;101292.97;5050918;28;20049;-74
2023/12/07 10:44:32;;;;;;;46.75;43.53;;;;;;;1.86;100.00;101302.34;5059090;28;20048;-74
2023/12/07 10:47:01;;;;;;;48.97;45.78;;;;;;;1.93;100.00;101298.22;5062909;28;20049;-74
2023/12/07 10:49:28;;;;;;;49.45;46.00;;;;;;;1.86;100.00;101296.28;5062251;28;20045;-81
2023/12/07 10:52:01;;;;;;;43.22;40.17;;;;;;;1.84;100.00;101291.19;5048838;28;20053;-80
2023/12/07 10:54:56;;;;;;;39.13;36.33;;;;;;;1.80;100.00;101297.66;5064537;28;20449;-81
2023/12/07 10:57:24;;;;;;;39.55;36.65;;;;;;;1.81;100.00;101297.50;5065195;28;20045;-81
2023/12/07 10:59:53;;;;;;;50.85;47.60;;;;;;;1.82;100.00;101293.13;5068082;28;20136;-81
2023/12/07 11:02:33;;;;;;;41.78;38.97;;;;;;;1.72;100.00;101298.31;5060367;28;20480;-81
2023/12/07 11:05:07;;;;;;;39.67;36.90;;;;;;;1.75;100.00;101294.59;5065367;28;20048;-81
2023/12/07 11:07:48;;;;;;;40.55;37.75;;;;;;;1.86;100.00;101289.25;5067694;28;20121;-81
2023/12/07 11:10:22;;;;;;;30.77;28.33;;;;;;;1.83;100.00;101284.28;5059054;28;20088;-81
2023/12/07 11:12:57;;;;;;;30.98;28.58;;;;;;;1.90;100.00;101284.56;5059220;28;20098;-73
2023/12/07 11:15:24;;;;;;;32.03;29.58;;;;;;;1.80;100.00;101284.56;5048258;28;20055;-74
2023/12/07 11:17:54;;;;;;;31.67;29.17;;;;;;;1.72;100.00;101290.47;5056210;28;20045;-81
2023/12/07 11:20:22;;;;;;;30.95;28.55;;;;;;;1.74;100.00;101287.72;5056530;28;20048;-74
2023/12/07 11:22:49;;;;;;;31.60;29.30;;;;;;;1.98;100.00;101282.13;5063762;28;20077;-80
2023/12/07 11:25:16;;;;;;;31.00;28.70;;;;;;;1.64;100.00;101284.25;5069339;28;20102;-75
2023/12/07 11:27:50;;;;;;;31.15;28.85;;;;;;;1.95;100.00;101288.44;5064004;28;20444;-79